Terminal Aerodrome Forecast
Issued by NWS

Home | Current Version | Previous Version | Text Only | Print | Product List | Glossary On
Versions: 1 2 3 4 5 6 7 8 9 10 11 12 13 14 15 16 17
000
FTUS41 KBTV 261750 AAA
TAFMPV
TAF AMD
KMPV 261750Z 2618/2718 03003KT 1SM -SN BR OVC025
     FM261930 34004KT 1/2SM SN FG OVC010
     FM270600 33004KT 1 1/2SM -SN BR OVC025
     FM271100 34010G18KT P6SM SCT015 BKN025=

USA.gov is the U.S. government's official web portal to all federal, state and local government web resources and services.